Time,TemperatureF,DewpointF,PressureIn,WindDirection,WindDirectionDegrees,WindSpeedMPH,WindSpeedGustMPH,Humidity,HourlyPrecipIn,Conditions,Clouds,dailyrainin,SoftwareType,DateUTC
2013-06-16 00:02:00,65.0,61.0,29.93,SSW,213,0.0,3.0,87,0.00,,,0.03,,2013-06-16 04:02:00,
2013-06-16 00:12:00,65.0,61.0,29.92,SSW,213,0.0,1.0,87,0.00,,,0.03,,2013-06-16 04:12:00,
2013-06-16 00:23:00,65.0,61.0,29.92,SSW,213,0.0,0.0,87,0.00,,,0.03,,2013-06-16 04:23:00,
2013-06-16 00:34:00,65.0,61.0,29.92,SSW,213,0.0,0.0,87,0.00,,,0.03,,2013-06-16 04:34:00,
2013-06-16 00:42:00,65.0,61.0,29.91,SSW,213,0.0,2.0,87,0.00,,,0.03,,2013-06-16 04:42:00,
2013-06-16 00:53:00,65.0,61.0,29.91,SSW,213,0.0,1.0,87,0.00,,,0.03,,2013-06-16 04:53:00,
2013-06-16 01:02:00,65.0,61.0,29.91,SSW,213,0.0,1.0,87,0.00,,,0.03,,2013-06-16 05:02:00,
2013-06-16 01:12:00,65.0,61.0,29.90,SSW,213,0.0,2.0,87,0.00,,,0.03,,2013-06-16 05:12:00,
2013-06-16 01:22:00,65.0,61.0,29.90,SSW,213,0.0,0.0,87,0.00,,,0.03,,2013-06-16 05:22:00,
2013-06-16 01:34:00,65.0,61.0,29.89,SSW,213,0.0,2.0,86,0.00,,,0.03,,2013-06-16 05:34:00,
2013-06-16 01:43:00,65.0,60.0,29.88,SSW,212,3.0,4.0,84,0.00,,,0.03,,2013-06-16 05:43:00,
2013-06-16 01:52:00,66.0,61.0,29.88,SSW,213,1.0,5.0,83,0.00,,,0.03,,2013-06-16 05:52:00,
2013-06-16 02:01:00,66.0,61.0,29.88,SSW,213,0.0,5.0,83,0.00,,,0.03,,2013-06-16 06:01:00,
2013-06-16 02:11:00,66.0,61.0,29.87,SSW,213,3.0,5.0,83,0.00,,,0.03,,2013-06-16 06:11:00,
2013-06-16 02:22:00,66.0,61.0,29.87,SSW,213,3.0,5.0,83,0.00,,,0.03,,2013-06-16 06:22:00,
2013-06-16 02:33:00,66.0,61.0,29.87,SSW,204,2.0,5.0,83,0.00,,,0.03,,2013-06-16 06:33:00,
2013-06-16 02:43:00,66.0,61.0,29.86,SSW,200,1.0,4.0,83,0.00,,,0.03,,2013-06-16 06:43:00,
2013-06-16 02:52:00,66.0,61.0,29.86,SSW,200,2.0,5.0,83,0.00,,,0.03,,2013-06-16 06:52:00,
2013-06-16 03:01:00,66.0,61.0,29.86,South,190,4.0,5.0,84,0.00,,,0.03,,2013-06-16 07:01:00,
2013-06-16 03:12:00,65.0,61.0,29.85,South,175,2.0,8.0,86,0.01,,,0.04,,2013-06-16 07:12:00,
2013-06-16 03:22:00,65.0,61.0,29.84,South,175,0.0,3.0,87,0.01,,,0.04,,2013-06-16 07:22:00,
2013-06-16 03:33:00,65.0,61.0,29.83,South,175,0.0,4.0,88,0.01,,,0.04,,2013-06-16 07:33:00,
2013-06-16 03:43:00,65.0,62.0,29.83,South,175,0.0,4.0,89,0.01,,,0.04,,2013-06-16 07:43:00,
2013-06-16 03:53:00,65.0,61.0,29.82,South,173,3.0,4.0,88,0.01,,,0.04,,2013-06-16 07:53:00,
2013-06-16 04:02:00,65.0,61.0,29.82,SSE,161,3.0,5.0,88,0.01,,,0.04,,2013-06-16 08:02:00,
2013-06-16 04:12:00,65.0,61.0,29.82,SSE,165,3.0,9.0,88,0.00,,,0.04,,2013-06-16 08:12:00,
2013-06-16 04:22:00,65.0,61.0,29.82,South,171,2.0,9.0,88,0.00,,,0.04,,2013-06-16 08:22:00,
2013-06-16 04:33:00,64.0,60.0,29.81,South,174,5.0,5.0,88,0.00,,,0.04,,2013-06-16 08:33:00,
2013-06-16 04:43:00,64.0,60.0,29.81,South,174,5.0,5.0,88,0.00,,,0.04,,2013-06-16 08:43:00,
2013-06-16 04:54:00,64.0,60.0,29.81,South,185,3.0,5.0,88,0.00,,,0.04,,2013-06-16 08:54:00,
2013-06-16 05:02:00,64.0,61.0,29.81,South,185,1.0,5.0,89,0.00,,,0.04,,2013-06-16 09:02:00,
2013-06-16 05:11:00,64.0,61.0,29.81,South,186,0.0,6.0,89,0.00,,,0.04,,2013-06-16 09:11:00,
2013-06-16 05:22:00,64.0,61.0,29.81,South,186,2.0,4.0,90,0.00,,,0.04,,2013-06-16 09:22:00,
2013-06-16 05:33:00,64.0,61.0,29.81,South,186,2.0,4.0,90,0.00,,,0.04,,2013-06-16 09:33:00,
2013-06-16 05:43:00,64.0,61.0,29.81,South,186,2.0,4.0,90,0.00,,,0.04,,2013-06-16 09:43:00,
2013-06-16 05:52:00,65.0,62.0,29.82,SSW,209,3.0,6.0,89,0.00,,,0.03,,2013-06-16 09:52:00,
2013-06-16 06:02:00,65.0,62.0,29.83,SSW,211,1.0,5.0,90,0.01,,,0.04,,2013-06-16 10:02:00,
2013-06-16 06:12:00,65.0,62.0,29.83,SSW,211,1.0,5.0,90,0.01,,,0.04,,2013-06-16 10:12:00,
2013-06-16 06:22:00,65.0,63.0,29.82,SW,232,2.0,7.0,93,0.04,,,0.08,,2013-06-16 10:22:00,
2013-06-16 06:33:00,65.0,63.0,29.83,WSW,254,5.0,7.0,94,0.10,,,0.13,,2013-06-16 10:33:00,
2013-06-16 06:43:00,65.0,64.0,29.82,WSW,238,5.0,8.0,95,0.16,,,0.19,,2013-06-16 10:43:00,
2013-06-16 06:54:00,65.0,64.0,29.83,WSW,255,6.0,7.0,95,0.19,,,0.22,,2013-06-16 10:54:00,
2013-06-16 07:02:00,65.0,64.0,29.83,WSW,249,4.0,7.0,96,0.22,,,0.26,,2013-06-16 11:02:00,
2013-06-16 07:12:00,65.0,64.0,29.82,SW,236,4.0,8.0,96,0.20,,,0.27,,2013-06-16 11:12:00,
2013-06-16 07:22:00,65.0,64.0,29.80,WSW,257,7.0,11.0,96,0.19,,,0.28,,2013-06-16 11:22:00,
2013-06-16 07:34:00,65.0,64.0,29.80,WSW,257,7.0,11.0,96,0.19,,,0.28,,2013-06-16 11:34:00,
2013-06-16 07:43:00,66.0,65.0,29.79,WSW,237,0.0,7.0,96,0.09,,,0.28,,2013-06-16 11:43:00,
2013-06-16 07:52:00,66.0,65.0,29.78,WSW,238,4.0,7.0,96,0.05,,,0.28,,2013-06-16 11:52:00,
2013-06-16 08:02:00,66.0,65.0,29.78,WSW,241,7.0,10.0,96,0.03,,,0.28,,2013-06-16 12:02:00,
2013-06-16 08:12:00,66.0,65.0,29.78,WSW,241,7.0,10.0,96,0.03,,,0.28,,2013-06-16 12:12:00,
2013-06-16 08:22:00,67.0,65.0,29.77,SW,232,5.0,10.0,93,0.00,,,0.28,,2013-06-16 12:22:00,
2013-06-16 08:32:00,67.0,65.0,29.78,SW,235,7.0,9.0,92,0.00,,,0.28,,2013-06-16 12:32:00,
2013-06-16 08:42:00,67.0,64.0,29.77,SW,236,5.0,10.0,91,0.00,,,0.28,,2013-06-16 12:42:00,
2013-06-16 08:53:00,67.0,64.0,29.78,WSW,248,6.0,9.0,91,0.01,,,0.29,,2013-06-16 12:53:00,
2013-06-16 09:01:00,67.0,64.0,29.77,SW,215,4.0,10.0,91,0.01,,,0.29,,2013-06-16 13:01:00,
2013-06-16 09:11:00,67.0,64.0,29.77,SW,215,4.0,10.0,91,0.01,,,0.29,,2013-06-16 13:11:00,
2013-06-16 09:22:00,67.0,64.0,29.77,SSW,212,10.0,12.0,91,0.01,,,0.29,,2013-06-16 13:22:00,
2013-06-16 09:34:00,67.0,64.0,29.78,WSW,237,6.0,14.0,91,0.01,,,0.29,,2013-06-16 13:34:00,
2013-06-16 09:43:00,68.0,65.0,29.79,WSW,240,6.0,14.0,90,0.01,,,0.29,,2013-06-16 13:43:00,
2013-06-16 09:54:00,68.0,65.0,29.79,WSW,240,6.0,14.0,90,0.01,,,0.29,,2013-06-16 13:54:00,
2013-06-16 10:02:00,68.0,65.0,29.80,WSW,257,4.0,11.0,89,0.00,,,0.29,,2013-06-16 14:02:00,
2013-06-16 10:12:00,69.0,65.0,29.80,WSW,249,3.0,10.0,88,0.00,,,0.29,,2013-06-16 14:12:00,
2013-06-16 10:22:00,69.0,66.0,29.81,WSW,242,3.0,11.0,89,0.00,,,0.29,,2013-06-16 14:22:00,
2013-06-16 10:34:00,69.0,66.0,29.81,WSW,252,5.0,8.0,89,0.00,,,0.29,,2013-06-16 14:34:00,
2013-06-16 10:43:00,68.0,65.0,29.80,WSW,240,4.0,9.0,89,0.00,,,0.29,,2013-06-16 14:43:00,
2013-06-16 10:52:00,68.0,65.0,29.80,WSW,238,8.0,11.0,90,0.00,,,0.29,,2013-06-16 14:52:00,
2013-06-16 11:02:00,68.0,65.0,29.80,SW,214,7.0,15.0,89,0.00,,,0.29,,2013-06-16 15:02:00,
2013-06-16 11:12:00,68.0,65.0,29.80,WSW,238,7.0,13.0,90,0.01,,,0.30,,2013-06-16 15:12:00,
2013-06-16 11:23:00,68.0,65.0,29.80,WSW,237,6.0,13.0,90,0.01,,,0.30,,2013-06-16 15:23:00,
2013-06-16 11:34:00,68.0,65.0,29.80,WSW,237,6.0,13.0,90,0.01,,,0.30,,2013-06-16 15:34:00,
2013-06-16 11:43:00,68.0,65.0,29.80,WSW,237,6.0,13.0,90,0.01,,,0.30,,2013-06-16 15:43:00,
2013-06-16 11:52:00,69.0,66.0,29.80,SW,219,5.0,15.0,89,0.01,,,0.30,,2013-06-16 15:52:00,
2013-06-16 12:02:00,71.0,67.0,29.80,WSW,238,6.0,15.0,88,0.01,,,0.30,,2013-06-16 16:02:00,
2013-06-16 12:12:00,72.0,68.0,29.80,SW,227,7.0,13.0,87,0.00,,,0.30,,2013-06-16 16:12:00,
2013-06-16 12:23:00,72.0,68.0,29.80,SW,227,7.0,13.0,87,0.00,,,0.30,,2013-06-16 16:23:00,
2013-06-16 12:33:00,71.0,66.0,29.81,West,267,9.0,16.0,85,0.00,,,0.30,,2013-06-16 16:33:00,
2013-06-16 12:43:00,71.0,66.0,29.81,SW,235,7.0,14.0,85,0.00,,,0.30,,2013-06-16 16:43:00,
2013-06-16 12:53:00,72.0,68.0,29.81,WSW,242,3.0,12.0,86,0.00,,,0.30,,2013-06-16 16:53:00,
2013-06-16 13:02:00,72.0,68.0,29.81,WSW,240,4.0,11.0,86,0.00,,,0.30,,2013-06-16 17:02:00,
2013-06-16 13:12:00,72.0,68.0,29.81,WSW,240,4.0,11.0,86,0.00,,,0.30,,2013-06-16 17:12:00,
2013-06-16 13:22:00,73.0,68.0,29.81,WSW,240,10.0,13.0,84,0.00,,,0.30,,2013-06-16 17:22:00,
2013-06-16 13:34:00,73.0,67.0,29.81,West,273,6.0,11.0,82,0.00,,,0.30,,2013-06-16 17:34:00,
2013-06-16 13:43:00,74.0,68.0,29.81,WSW,238,6.0,14.0,81,0.00,,,0.30,,2013-06-16 17:43:00,
2013-06-16 13:53:00,74.0,68.0,29.81,SW,236,5.0,11.0,81,0.00,,,0.30,,2013-06-16 17:53:00,
2013-06-16 14:02:00,74.0,68.0,29.81,WSW,246,7.0,11.0,82,0.00,,,0.30,,2013-06-16 18:02:00,
2013-06-16 14:12:00,74.0,68.0,29.82,WNW,303,8.0,10.0,83,0.00,,,0.30,,2013-06-16 18:12:00,
2013-06-16 14:22:00,76.0,70.0,29.82,WSW,248,5.0,12.0,81,0.00,,,0.30,,2013-06-16 18:22:00,
2013-06-16 14:33:00,76.0,70.0,29.82,WSW,248,5.0,12.0,81,0.00,,,0.30,,2013-06-16 18:33:00,
2013-06-16 14:43:00,76.0,68.0,29.81,West,266,10.0,14.0,77,0.00,,,0.30,,2013-06-16 18:43:00,
2013-06-16 14:52:00,76.0,68.0,29.81,SW,229,6.0,14.0,77,0.00,,,0.30,,2013-06-16 18:52:00,
2013-06-16 15:01:00,77.0,69.0,29.81,WSW,246,6.0,13.0,77,0.00,,,0.30,,2013-06-16 19:01:00,
2013-06-16 15:11:00,76.0,68.0,29.81,West,267,4.0,13.0,77,0.00,,,0.30,,2013-06-16 19:11:00,
2013-06-16 15:22:00,76.0,68.0,29.81,West,267,4.0,13.0,77,0.00,,,0.30,,2013-06-16 19:22:00,
2013-06-16 15:34:00,78.0,71.0,29.81,WSW,244,5.0,11.0,78,0.00,,,0.30,,2013-06-16 19:34:00,
2013-06-16 15:43:00,78.0,71.0,29.81,WSW,244,5.0,11.0,78,0.00,,,0.30,,2013-06-16 19:43:00,
2013-06-16 15:53:00,77.0,70.0,29.81,SSW,212,6.0,14.0,80,0.00,,,0.30,,2013-06-16 19:53:00,
2013-06-16 16:02:00,78.0,70.0,29.81,SW,228,6.0,13.0,77,0.00,,,0.30,,2013-06-16 20:02:00,
2013-06-16 16:12:00,78.0,70.0,29.81,SW,228,6.0,13.0,77,0.00,,,0.30,,2013-06-16 20:12:00,
2013-06-16 16:22:00,78.0,71.0,29.81,SW,221,7.0,12.0,79,0.00,,,0.30,,2013-06-16 20:22:00,
2013-06-16 16:33:00,78.0,70.0,29.81,SW,236,7.0,12.0,77,0.00,,,0.30,,2013-06-16 20:33:00,
2013-06-16 16:42:00,77.0,69.0,29.81,WSW,247,7.0,15.0,76,0.00,,,0.30,,2013-06-16 20:42:00,
2013-06-16 16:53:00,77.0,70.0,29.81,SW,232,8.0,13.0,80,0.00,,,0.30,,2013-06-16 20:53:00,
2013-06-16 17:02:00,77.0,70.0,29.81,SW,232,8.0,13.0,80,0.00,,,0.30,,2013-06-16 21:02:00,
2013-06-16 17:11:00,77.0,70.0,29.81,SW,232,8.0,13.0,80,0.00,,,0.30,,2013-06-16 21:11:00,
2013-06-16 17:22:00,76.0,69.0,29.81,WSW,249,9.0,9.0,79,0.00,,,0.30,,2013-06-16 21:22:00,
2013-06-16 17:33:00,76.0,69.0,29.81,SW,230,7.0,10.0,80,0.00,,,0.30,,2013-06-16 21:33:00,
2013-06-16 17:42:00,76.0,69.0,29.81,SW,230,7.0,10.0,80,0.00,,,0.30,,2013-06-16 21:42:00,
2013-06-16 17:53:00,76.0,70.0,29.81,SW,214,5.0,8.0,82,0.00,,,0.30,,2013-06-16 21:53:00,
2013-06-16 18:01:00,76.0,70.0,29.81,SW,214,5.0,8.0,82,0.00,,,0.30,,2013-06-16 22:01:00,
2013-06-16 18:12:00,75.0,69.0,29.82,SSW,210,5.0,15.0,81,0.00,,,0.30,,2013-06-16 22:12:00,
2013-06-16 18:22:00,75.0,69.0,29.82,SSW,210,5.0,15.0,81,0.00,,,0.30,,2013-06-16 22:22:00,
2013-06-16 18:32:00,75.0,69.0,29.82,SSW,210,5.0,15.0,81,0.00,,,0.30,,2013-06-16 22:32:00,
2013-06-16 18:42:00,73.0,70.0,29.81,SW,225,6.0,10.0,89,0.00,,,0.29,,2013-06-16 22:42:00,
2013-06-16 18:52:00,73.0,69.0,29.81,SW,234,5.0,8.0,87,0.00,,,0.28,,2013-06-16 22:52:00,
2013-06-16 19:02:00,73.0,69.0,29.81,SW,234,5.0,8.0,87,0.00,,,0.28,,2013-06-16 23:02:00,
2013-06-16 19:11:00,72.0,68.0,29.81,SSW,208,3.0,8.0,87,0.00,,,0.28,,2013-06-16 23:11:00,
2013-06-16 19:22:00,71.0,67.0,29.81,SW,217,3.0,8.0,87,0.00,,,0.28,,2013-06-16 23:22:00,
2013-06-16 19:32:00,71.0,68.0,29.81,SSW,202,3.0,6.0,89,0.00,,,0.28,,2013-06-16 23:32:00,
2013-06-16 19:42:00,71.0,68.0,29.81,SSW,202,4.0,6.0,89,0.01,,,0.29,,2013-06-16 23:42:00,
2013-06-16 19:52:00,70.0,67.0,29.81,SSW,213,2.0,6.0,91,0.07,,,0.35,,2013-06-16 23:52:00,
2013-06-16 20:02:00,70.0,68.0,29.82,SSW,213,3.0,5.0,94,0.07,,,0.35,,2013-06-17 00:02:00,
2013-06-16 20:11:00,70.0,68.0,29.82,SW,216,5.0,6.0,93,0.07,,,0.35,,2013-06-17 00:11:00,
2013-06-16 20:22:00,70.0,68.0,29.82,SW,216,6.0,9.0,93,0.07,,,0.35,,2013-06-17 00:22:00,
2013-06-16 20:32:00,70.0,68.0,29.82,SW,215,4.0,7.0,93,0.07,,,0.35,,2013-06-17 00:32:00,
2013-06-16 20:43:00,70.0,68.0,29.82,SSW,206,2.0,5.0,93,0.06,,,0.35,,2013-06-17 00:43:00,
2013-06-16 20:52:00,70.0,68.0,29.82,SSW,206,2.0,5.0,93,0.06,,,0.35,,2013-06-17 00:52:00,
2013-06-16 21:02:00,70.0,68.0,29.83,SSW,206,7.0,7.0,93,0.00,,,0.35,,2013-06-17 01:02:00,
2013-06-16 21:12:00,70.0,68.0,29.83,SSW,211,2.0,4.0,94,0.00,,,0.35,,2013-06-17 01:12:00,
2013-06-16 21:22:00,70.0,68.0,29.83,SSW,211,2.0,4.0,94,0.00,,,0.35,,2013-06-17 01:22:00,
2013-06-16 21:32:00,70.0,68.0,29.83,SSW,211,0.0,3.0,94,0.00,,,0.35,,2013-06-17 01:32:00,
2013-06-16 21:43:00,70.0,68.0,29.83,SSW,211,0.0,3.0,94,0.00,,,0.35,,2013-06-17 01:43:00,
2013-06-16 21:53:00,69.0,67.0,29.83,SSW,211,0.0,4.0,93,0.00,,,0.35,,2013-06-17 01:53:00,
2013-06-16 22:02:00,68.0,66.0,29.83,SSW,211,0.0,3.0,94,0.00,,,0.35,,2013-06-17 02:02:00,
2013-06-16 22:12:00,68.0,66.0,29.83,SSW,211,0.0,3.0,94,0.00,,,0.35,,2013-06-17 02:12:00,
2013-06-16 22:22:00,68.0,66.0,29.83,SSW,211,0.0,3.0,94,0.00,,,0.35,,2013-06-17 02:22:00,
2013-06-16 22:34:00,69.0,68.0,29.84,SSW,211,3.0,5.0,95,0.00,,,0.35,,2013-06-17 02:34:00,
2013-06-16 22:43:00,69.0,68.0,29.84,SSW,211,1.0,5.0,95,0.00,,,0.35,,2013-06-17 02:43:00,
2013-06-16 22:53:00,69.0,68.0,29.84,SSW,211,3.0,5.0,95,0.00,,,0.35,,2013-06-17 02:53:00,
2013-06-16 23:02:00,68.0,67.0,29.84,SSW,211,4.0,5.0,95,0.00,,,0.35,,2013-06-17 03:02:00,
2013-06-16 23:12:00,68.0,67.0,29.84,SSW,211,3.0,5.0,95,0.00,,,0.35,,2013-06-17 03:12:00,
2013-06-16 23:22:00,68.0,66.0,29.84,SSW,211,4.0,5.0,94,0.00,,,0.35,,2013-06-17 03:22:00,
2013-06-16 23:33:00,68.0,66.0,29.84,SSW,211,4.0,6.0,94,0.00,,,0.35,,2013-06-17 03:33:00,
2013-06-16 23:44:00,68.0,66.0,29.84,SSW,211,4.0,6.0,94,0.00,,,0.35,,2013-06-17 03:44:00,
2013-06-16 23:53:00,68.0,66.0,29.85,SSW,211,2.0,5.0,94,0.00,,,0.35,,2013-06-17 03:53:00,